sensor_id;sensor_type;location;lat;lon;timestamp;P1;durP1;ratioP1;P2;durP2;ratioP2
51949;SDS011;37974;53.218;6.640;2022-10-31T00:00:51;34.38;;;15.48;;
51949;SDS011;37974;53.218;6.640;2022-10-31T00:03:17;29.20;;;15.75;;
51949;SDS011;37974;53.218;6.640;2022-10-31T00:05:45;42.67;;;18.67;;
51949;SDS011;37974;53.218;6.640;2022-10-31T00:08:14;50.75;;;21.02;;
51949;SDS011;37974;53.218;6.640;2022-10-31T00:10:41;56.88;;;23.45;;
51949;SDS011;37974;53.218;6.640;2022-10-31T00:13:08;58.45;;;24.83;;
51949;SDS011;37974;53.218;6.640;2022-10-31T00:15:34;58.17;;;25.70;;
51949;SDS011;37974;53.218;6.640;2022-10-31T00:18:01;58.72;;;25.77;;
51949;SDS011;37974;53.218;6.640;2022-10-31T00:20:28;58.92;;;26.65;;
51949;SDS011;37974;53.218;6.640;2022-10-31T00:22:54;64.18;;;28.50;;
51949;SDS011;37974;53.218;6.640;2022-10-31T00:25:23;59.42;;;29.58;;
51949;SDS011;37974;53.218;6.640;2022-10-31T00:27:48;66.55;;;29.90;;
51949;SDS011;37974;53.218;6.640;2022-10-31T00:30:14;62.97;;;28.55;;
51949;SDS011;37974;53.218;6.640;2022-10-31T00:32:40;52.58;;;27.20;;
51949;SDS011;37974;53.218;6.640;2022-10-31T00:35:05;59.88;;;29.17;;
51949;SDS011;37974;53.218;6.640;2022-10-31T00:37:34;59.35;;;29.30;;
51949;SDS011;37974;53.218;6.640;2022-10-31T00:40:00;54.33;;;27.58;;
51949;SDS011;37974;53.218;6.640;2022-10-31T00:42:35;58.67;;;30.63;;
51949;SDS011;37974;53.218;6.640;2022-10-31T00:45:01;61.75;;;31.55;;
51949;SDS011;37974;53.218;6.640;2022-10-31T00:47:26;67.68;;;33.40;;
51949;SDS011;37974;53.218;6.640;2022-10-31T00:49:52;62.88;;;29.75;;
51949;SDS011;37974;53.218;6.640;2022-10-31T00:52:17;65.28;;;29.48;;
51949;SDS011;37974;53.218;6.640;2022-10-31T00:54:43;66.15;;;29.83;;
51949;SDS011;37974;53.218;6.640;2022-10-31T00:57:09;60.80;;;29.33;;
51949;SDS011;37974;53.218;6.640;2022-10-31T00:59:34;53.95;;;27.40;;
51949;SDS011;37974;53.218;6.640;2022-10-31T01:02:00;60.13;;;28.73;;
51949;SDS011;37974;53.218;6.640;2022-10-31T01:04:26;53.42;;;26.75;;
51949;SDS011;37974;53.218;6.640;2022-10-31T01:06:51;54.80;;;25.02;;
51949;SDS011;37974;53.218;6.640;2022-10-31T01:09:17;50.47;;;23.38;;
51949;SDS011;37974;53.218;6.640;2022-10-31T01:11:43;45.80;;;23.75;;
51949;SDS011;37974;53.218;6.640;2022-10-31T01:14:08;54.50;;;23.33;;
51949;SDS011;37974;53.218;6.640;2022-10-31T01:16:40;54.97;;;25.33;;
51949;SDS011;37974;53.218;6.640;2022-10-31T01:19:05;54.20;;;24.95;;
51949;SDS011;37974;53.218;6.640;2022-10-31T01:21:31;54.15;;;24.75;;
51949;SDS011;37974;53.218;6.640;2022-10-31T01:23:57;54.28;;;24.20;;
51949;SDS011;37974;53.218;6.640;2022-10-31T01:26:24;59.75;;;25.08;;
51949;SDS011;37974;53.218;6.640;2022-10-31T01:28:53;55.05;;;24.77;;
51949;SDS011;37974;53.218;6.640;2022-10-31T01:31:22;51.53;;;24.75;;
51949;SDS011;37974;53.218;6.640;2022-10-31T01:33:54;54.25;;;23.27;;
51949;SDS011;37974;53.218;6.640;2022-10-31T01:38:48;48.10;;;22.98;;
51949;SDS011;37974;53.218;6.640;2022-10-31T01:41:16;45.35;;;20.92;;
51949;SDS011;37974;53.218;6.640;2022-10-31T01:43:46;49.50;;;22.67;;
51949;SDS011;37974;53.218;6.640;2022-10-31T01:46:15;53.90;;;22.48;;
51949;SDS011;37974;53.218;6.640;2022-10-31T01:48:44;49.53;;;21.63;;
51949;SDS011;37974;53.218;6.640;2022-10-31T01:51:11;42.58;;;20.20;;
51949;SDS011;37974;53.218;6.640;2022-10-31T01:53:39;44.35;;;19.58;;
51949;SDS011;37974;53.218;6.640;2022-10-31T01:56:07;44.33;;;20.35;;
51949;SDS011;37974;53.218;6.640;2022-10-31T01:58:33;43.22;;;18.88;;
51949;SDS011;37974;53.218;6.640;2022-10-31T02:01:00;39.45;;;19.83;;
51949;SDS011;37974;53.218;6.640;2022-10-31T02:03:27;38.95;;;18.35;;
51949;SDS011;37974;53.218;6.640;2022-10-31T02:05:54;42.45;;;19.95;;
51949;SDS011;37974;53.218;6.640;2022-10-31T02:08:25;56.13;;;20.98;;
51949;SDS011;37974;53.218;6.640;2022-10-31T02:10:52;47.17;;;20.77;;
51949;SDS011;37974;53.218;6.640;2022-10-31T02:13:19;41.03;;;20.90;;
51949;SDS011;37974;53.218;6.640;2022-10-31T02:15:47;48.13;;;21.85;;
51949;SDS011;37974;53.218;6.640;2022-10-31T02:18:16;43.45;;;21.33;;
51949;SDS011;37974;53.218;6.640;2022-10-31T02:20:55;46.75;;;21.45;;
51949;SDS011;37974;53.218;6.640;2022-10-31T02:33:50;48.72;;;21.40;;
51949;SDS011;37974;53.218;6.640;2022-10-31T02:44:08;41.15;;;20.48;;
51949;SDS011;37974;53.218;6.640;2022-10-31T02:46:49;43.30;;;21.48;;
51949;SDS011;37974;53.218;6.640;2022-10-31T02:49:28;44.55;;;21.50;;
51949;SDS011;37974;53.218;6.640;2022-10-31T02:52:16;45.95;;;20.20;;
51949;SDS011;37974;53.218;6.640;2022-10-31T02:54:43;37.58;;;19.45;;
51949;SDS011;37974;53.218;6.640;2022-10-31T02:57:10;38.17;;;20.40;;
51949;SDS011;37974;53.218;6.640;2022-10-31T02:59:37;38.08;;;19.25;;
51949;SDS011;37974;53.218;6.640;2022-10-31T03:02:09;40.35;;;19.33;;
51949;SDS011;37974;53.218;6.640;2022-10-31T03:05:00;38.45;;;19.02;;
51949;SDS011;37974;53.218;6.640;2022-10-31T03:10:27;39.55;;;20.52;;
51949;SDS011;37974;53.218;6.640;2022-10-31T03:13:09;44.58;;;19.80;;
51949;SDS011;37974;53.218;6.640;2022-10-31T03:15:43;38.88;;;20.20;;
51949;SDS011;37974;53.218;6.640;2022-10-31T03:18:17;32.78;;;18.63;;
51949;SDS011;37974;53.218;6.640;2022-10-31T03:20:54;32.25;;;17.55;;
51949;SDS011;37974;53.218;6.640;2022-10-31T03:23:25;36.90;;;18.15;;
51949;SDS011;37974;53.218;6.640;2022-10-31T03:25:53;31.63;;;17.52;;
51949;SDS011;37974;53.218;6.640;2022-10-31T03:28:26;33.72;;;16.30;;
51949;SDS011;37974;53.218;6.640;2022-10-31T03:30:55;32.28;;;15.80;;
51949;SDS011;37974;53.218;6.640;2022-10-31T03:33:26;41.60;;;19.52;;
51949;SDS011;37974;53.218;6.640;2022-10-31T03:35:55;44.60;;;21.67;;
51949;SDS011;37974;53.218;6.640;2022-10-31T03:38:23;42.25;;;23.15;;
51949;SDS011;37974;53.218;6.640;2022-10-31T03:40:49;46.58;;;22.15;;
51949;SDS011;37974;53.218;6.640;2022-10-31T03:43:18;41.17;;;21.20;;
51949;SDS011;37974;53.218;6.640;2022-10-31T03:45:47;45.70;;;20.60;;
51949;SDS011;37974;53.218;6.640;2022-10-31T03:48:13;42.22;;;20.88;;
51949;SDS011;37974;53.218;6.640;2022-10-31T03:50:46;39.53;;;19.92;;
51949;SDS011;37974;53.218;6.640;2022-10-31T03:53:20;38.70;;;19.15;;
51949;SDS011;37974;53.218;6.640;2022-10-31T03:55:52;40.00;;;18.85;;
51949;SDS011;37974;53.218;6.640;2022-10-31T03:58:33;38.13;;;20.27;;
51949;SDS011;37974;53.218;6.640;2022-10-31T04:01:04;34.78;;;18.00;;
51949;SDS011;37974;53.218;6.640;2022-10-31T04:03:34;39.90;;;19.13;;
51949;SDS011;37974;53.218;6.640;2022-10-31T04:06:04;33.28;;;16.38;;
51949;SDS011;37974;53.218;6.640;2022-10-31T04:08:33;29.63;;;15.95;;
51949;SDS011;37974;53.218;6.640;2022-10-31T04:11:05;31.90;;;14.38;;
51949;SDS011;37974;53.218;6.640;2022-10-31T04:13:34;30.95;;;17.10;;
51949;SDS011;37974;53.218;6.640;2022-10-31T04:16:02;31.98;;;15.95;;
51949;SDS011;37974;53.218;6.640;2022-10-31T04:18:31;32.08;;;16.75;;
51949;SDS011;37974;53.218;6.640;2022-10-31T04:21:01;31.23;;;15.35;;
51949;SDS011;37974;53.218;6.640;2022-10-31T04:23:29;29.13;;;14.57;;
51949;SDS011;37974;53.218;6.640;2022-10-31T04:25:55;30.75;;;16.15;;
51949;SDS011;37974;53.218;6.640;2022-10-31T04:28:21;25.42;;;13.38;;
51949;SDS011;37974;53.218;6.640;2022-10-31T04:30:47;21.50;;;12.88;;
51949;SDS011;37974;53.218;6.640;2022-10-31T04:33:12;26.00;;;13.60;;
51949;SDS011;37974;53.218;6.640;2022-10-31T04:35:38;24.80;;;14.18;;
51949;SDS011;37974;53.218;6.640;2022-10-31T04:38:04;19.35;;;12.02;;
51949;SDS011;37974;53.218;6.640;2022-10-31T04:40:32;24.00;;;13.32;;
51949;SDS011;37974;53.218;6.640;2022-10-31T04:42:58;26.80;;;14.52;;
51949;SDS011;37974;53.218;6.640;2022-10-31T04:45:24;26.27;;;13.93;;
51949;SDS011;37974;53.218;6.640;2022-10-31T04:47:49;26.52;;;15.15;;
51949;SDS011;37974;53.218;6.640;2022-10-31T04:50:15;31.65;;;18.02;;
51949;SDS011;37974;53.218;6.640;2022-10-31T04:52:41;48.10;;;23.20;;
51949;SDS011;37974;53.218;6.640;2022-10-31T04:55:09;48.97;;;23.88;;
51949;SDS011;37974;53.218;6.640;2022-10-31T04:57:40;53.10;;;24.38;;
51949;SDS011;37974;53.218;6.640;2022-10-31T05:00:07;54.47;;;24.58;;
51949;SDS011;37974;53.218;6.640;2022-10-31T05:02:33;44.80;;;22.10;;
51949;SDS011;37974;53.218;6.640;2022-10-31T05:04:59;47.05;;;21.58;;
51949;SDS011;37974;53.218;6.640;2022-10-31T05:07:25;46.13;;;23.55;;
51949;SDS011;37974;53.218;6.640;2022-10-31T05:09:50;41.25;;;22.15;;
51949;SDS011;37974;53.218;6.640;2022-10-31T05:12:16;50.78;;;23.48;;
51949;SDS011;37974;53.218;6.640;2022-10-31T05:14:41;42.30;;;23.08;;
51949;SDS011;37974;53.218;6.640;2022-10-31T05:17:07;48.97;;;24.95;;
51949;SDS011;37974;53.218;6.640;2022-10-31T05:19:33;52.25;;;25.38;;
51949;SDS011;37974;53.218;6.640;2022-10-31T05:21:58;54.00;;;25.65;;
51949;SDS011;37974;53.218;6.640;2022-10-31T05:24:24;44.83;;;23.00;;
51949;SDS011;37974;53.218;6.640;2022-10-31T05:26:50;80.90;;;19.08;;
51949;SDS011;37974;53.218;6.640;2022-10-31T05:29:15;31.50;;;13.63;;
51949;SDS011;37974;53.218;6.640;2022-10-31T05:31:41;20.25;;;12.85;;
51949;SDS011;37974;53.218;6.640;2022-10-31T05:34:07;21.48;;;12.73;;
51949;SDS011;37974;53.218;6.640;2022-10-31T05:36:32;98.75;;;17.65;;
51949;SDS011;37974;53.218;6.640;2022-10-31T05:38:58;69.05;;;15.00;;
51949;SDS011;37974;53.218;6.640;2022-10-31T05:41:23;808.30;;;47.83;;
51949;SDS011;37974;53.218;6.640;2022-10-31T05:43:49;141.55;;;17.25;;
51949;SDS011;37974;53.218;6.640;2022-10-31T05:46:15;32.92;;;12.07;;
51949;SDS011;37974;53.218;6.640;2022-10-31T05:48:40;141.55;;;15.35;;
51949;SDS011;37974;53.218;6.640;2022-10-31T05:51:06;117.93;;;15.95;;
51949;SDS011;37974;53.218;6.640;2022-10-31T05:53:32;89.55;;;17.00;;
51949;SDS011;37974;53.218;6.640;2022-10-31T05:55:57;27.55;;;15.30;;
51949;SDS011;37974;53.218;6.640;2022-10-31T05:58:23;21.30;;;13.25;;
51949;SDS011;37974;53.218;6.640;2022-10-31T06:00:49;21.35;;;13.55;;
51949;SDS011;37974;53.218;6.640;2022-10-31T06:03:14;40.47;;;19.15;;
51949;SDS011;37974;53.218;6.640;2022-10-31T06:05:40;27.15;;;16.77;;
51949;SDS011;37974;53.218;6.640;2022-10-31T06:08:05;31.58;;;14.90;;
51949;SDS011;37974;53.218;6.640;2022-10-31T06:10:31;41.03;;;18.20;;
51949;SDS011;37974;53.218;6.640;2022-10-31T06:12:57;27.42;;;13.70;;
51949;SDS011;37974;53.218;6.640;2022-10-31T06:15:26;22.63;;;11.95;;
51949;SDS011;37974;53.218;6.640;2022-10-31T06:18:04;19.98;;;12.30;;
51949;SDS011;37974;53.218;6.640;2022-10-31T06:20:31;167.93;;;13.05;;
51949;SDS011;37974;53.218;6.640;2022-10-31T06:22:57;173.90;;;11.80;;
51949;SDS011;37974;53.218;6.640;2022-10-31T06:25:24;44.88;;;7.63;;
51949;SDS011;37974;53.218;6.640;2022-10-31T06:27:50;17.42;;;7.10;;
51949;SDS011;37974;53.218;6.640;2022-10-31T06:30:15;51.50;;;6.85;;
51949;SDS011;37974;53.218;6.640;2022-10-31T06:32:41;27.30;;;11.90;;
51949;SDS011;37974;53.218;6.640;2022-10-31T06:35:07;22.50;;;10.23;;
51949;SDS011;37974;53.218;6.640;2022-10-31T06:37:33;34.20;;;11.23;;
51949;SDS011;37974;53.218;6.640;2022-10-31T06:39:59;47.95;;;14.10;;
51949;SDS011;37974;53.218;6.640;2022-10-31T06:42:24;21.88;;;14.10;;
51949;SDS011;37974;53.218;6.640;2022-10-31T06:44:50;22.83;;;15.00;;
51949;SDS011;37974;53.218;6.640;2022-10-31T06:47:16;21.83;;;14.23;;
51949;SDS011;37974;53.218;6.640;2022-10-31T06:49:44;19.75;;;12.82;;
51949;SDS011;37974;53.218;6.640;2022-10-31T06:52:12;25.40;;;14.40;;
51949;SDS011;37974;53.218;6.640;2022-10-31T06:54:41;24.48;;;13.80;;
51949;SDS011;37974;53.218;6.640;2022-10-31T06:57:07;30.20;;;12.50;;
51949;SDS011;37974;53.218;6.640;2022-10-31T06:59:32;21.50;;;13.07;;
51949;SDS011;37974;53.218;6.640;2022-10-31T07:01:58;16.83;;;11.23;;
51949;SDS011;37974;53.218;6.640;2022-10-31T07:04:24;17.92;;;10.52;;
51949;SDS011;37974;53.218;6.640;2022-10-31T07:06:51;13.32;;;7.68;;
51949;SDS011;37974;53.218;6.640;2022-10-31T07:09:17;19.23;;;8.73;;
51949;SDS011;37974;53.218;6.640;2022-10-31T07:11:43;11.45;;;7.13;;
51949;SDS011;37974;53.218;6.640;2022-10-31T07:14:08;18.08;;;10.00;;
51949;SDS011;37974;53.218;6.640;2022-10-31T07:16:34;18.30;;;10.52;;
51949;SDS011;37974;53.218;6.640;2022-10-31T07:19:00;58.42;;;11.40;;
51949;SDS011;37974;53.218;6.640;2022-10-31T07:21:25;20.63;;;10.20;;
51949;SDS011;37974;53.218;6.640;2022-10-31T07:23:51;22.10;;;12.10;;
51949;SDS011;37974;53.218;6.640;2022-10-31T07:26:17;23.00;;;13.13;;
51949;SDS011;37974;53.218;6.640;2022-10-31T07:28:42;28.70;;;16.40;;
51949;SDS011;37974;53.218;6.640;2022-10-31T07:31:08;82.43;;;20.48;;
51949;SDS011;37974;53.218;6.640;2022-10-31T07:33:34;32.47;;;16.80;;
51949;SDS011;37974;53.218;6.640;2022-10-31T07:35:59;40.45;;;14.38;;
51949;SDS011;37974;53.218;6.640;2022-10-31T07:38:25;18.10;;;12.35;;
51949;SDS011;37974;53.218;6.640;2022-10-31T07:40:51;32.25;;;17.60;;
51949;SDS011;37974;53.218;6.640;2022-10-31T07:43:27;30.58;;;18.58;;
51949;SDS011;37974;53.218;6.640;2022-10-31T07:45:59;30.08;;;19.30;;
51949;SDS011;37974;53.218;6.640;2022-10-31T07:48:28;37.60;;;22.65;;
51949;SDS011;37974;53.218;6.640;2022-10-31T07:51:15;52.63;;;24.98;;
51949;SDS011;37974;53.218;6.640;2022-10-31T07:53:48;44.78;;;22.80;;
51949;SDS011;37974;53.218;6.640;2022-10-31T07:58:39;43.75;;;24.33;;
51949;SDS011;37974;53.218;6.640;2022-10-31T08:01:11;35.88;;;23.13;;
51949;SDS011;37974;53.218;6.640;2022-10-31T08:03:37;41.17;;;22.67;;
51949;SDS011;37974;53.218;6.640;2022-10-31T08:06:02;34.92;;;21.25;;
51949;SDS011;37974;53.218;6.640;2022-10-31T08:08:28;37.03;;;22.23;;
51949;SDS011;37974;53.218;6.640;2022-10-31T08:10:57;46.28;;;27.25;;
51949;SDS011;37974;53.218;6.640;2022-10-31T08:13:23;40.05;;;25.02;;
51949;SDS011;37974;53.218;6.640;2022-10-31T08:15:49;42.55;;;24.05;;
51949;SDS011;37974;53.218;6.640;2022-10-31T08:18:24;42.58;;;24.40;;
51949;SDS011;37974;53.218;6.640;2022-10-31T08:21:05;41.90;;;24.50;;
51949;SDS011;37974;53.218;6.640;2022-10-31T08:23:33;38.55;;;23.70;;
51949;SDS011;37974;53.218;6.640;2022-10-31T08:26:01;36.05;;;23.52;;
51949;SDS011;37974;53.218;6.640;2022-10-31T08:28:44;36.50;;;21.92;;
51949;SDS011;37974;53.218;6.640;2022-10-31T08:31:19;32.17;;;21.88;;
51949;SDS011;37974;53.218;6.640;2022-10-31T08:33:52;34.15;;;21.60;;
51949;SDS011;37974;53.218;6.640;2022-10-31T08:36:24;39.28;;;21.85;;
51949;SDS011;37974;53.218;6.640;2022-10-31T08:38:58;30.83;;;20.52;;
51949;SDS011;37974;53.218;6.640;2022-10-31T08:41:28;29.77;;;21.27;;
51949;SDS011;37974;53.218;6.640;2022-10-31T08:43:54;33.33;;;20.58;;
51949;SDS011;37974;53.218;6.640;2022-10-31T08:46:19;31.77;;;19.40;;
51949;SDS011;37974;53.218;6.640;2022-10-31T08:48:48;31.98;;;20.48;;
51949;SDS011;37974;53.218;6.640;2022-10-31T08:51:25;34.08;;;22.08;;
51949;SDS011;37974;53.218;6.640;2022-10-31T08:53:51;29.27;;;20.45;;
51949;SDS011;37974;53.218;6.640;2022-10-31T08:56:16;32.42;;;21.58;;
51949;SDS011;37974;53.218;6.640;2022-10-31T08:58:47;34.30;;;22.73;;
51949;SDS011;37974;53.218;6.640;2022-10-31T09:02:07;29.63;;;20.33;;
51949;SDS011;37974;53.218;6.640;2022-10-31T09:04:32;27.13;;;19.60;;
51949;SDS011;37974;53.218;6.640;2022-10-31T09:07:02;28.58;;;19.33;;
51949;SDS011;37974;53.218;6.640;2022-10-31T09:09:43;32.33;;;20.55;;
51949;SDS011;37974;53.218;6.640;2022-10-31T09:12:42;27.08;;;19.40;;
51949;SDS011;37974;53.218;6.640;2022-10-31T09:15:09;31.58;;;19.80;;
51949;SDS011;37974;53.218;6.640;2022-10-31T09:18:17;30.73;;;19.50;;
51949;SDS011;37974;53.218;6.640;2022-10-31T09:21:12;28.15;;;19.70;;
51949;SDS011;37974;53.218;6.640;2022-10-31T09:24:11;24.38;;;18.42;;
51949;SDS011;37974;53.218;6.640;2022-10-31T09:27:08;29.50;;;19.42;;
51949;SDS011;37974;53.218;6.640;2022-10-31T09:29:37;27.25;;;19.00;;
51949;SDS011;37974;53.218;6.640;2022-10-31T09:32:26;23.58;;;17.65;;
51949;SDS011;37974;53.218;6.640;2022-10-31T09:35:00;25.27;;;18.40;;
51949;SDS011;37974;53.218;6.640;2022-10-31T09:38:03;28.80;;;17.92;;
51949;SDS011;37974;53.218;6.640;2022-10-31T09:40:35;26.17;;;18.42;;
51949;SDS011;37974;53.218;6.640;2022-10-31T09:46:28;28.58;;;17.40;;
51949;SDS011;37974;53.218;6.640;2022-10-31T09:49:28;28.45;;;18.70;;
51949;SDS011;37974;53.218;6.640;2022-10-31T09:55:21;25.60;;;17.23;;
51949;SDS011;37974;53.218;6.640;2022-10-31T09:58:13;26.30;;;17.27;;
51949;SDS011;37974;53.218;6.640;2022-10-31T10:01:02;25.38;;;16.98;;
51949;SDS011;37974;53.218;6.640;2022-10-31T10:03:39;25.52;;;16.38;;
51949;SDS011;37974;53.218;6.640;2022-10-31T10:09:23;21.55;;;15.85;;
51949;SDS011;37974;53.218;6.640;2022-10-31T10:15:27;24.10;;;16.75;;
51949;SDS011;37974;53.218;6.640;2022-10-31T10:18:23;29.95;;;17.05;;
51949;SDS011;37974;53.218;6.640;2022-10-31T10:31:14;20.90;;;13.77;;
51949;SDS011;37974;53.218;6.640;2022-10-31T10:58:11;25.27;;;14.63;;
51949;SDS011;37974;53.218;6.640;2022-10-31T11:10:02;21.42;;;13.93;;
51949;SDS011;37974;53.218;6.640;2022-10-31T11:12:58;21.80;;;14.10;;
51949;SDS011;37974;53.218;6.640;2022-10-31T12:00:37;20.48;;;9.20;;
51949;SDS011;37974;53.218;6.640;2022-10-31T12:03:10;12.52;;;7.90;;
51949;SDS011;37974;53.218;6.640;2022-10-31T12:05:53;16.45;;;8.10;;
51949;SDS011;37974;53.218;6.640;2022-10-31T12:08:21;17.80;;;9.10;;
51949;SDS011;37974;53.218;6.640;2022-10-31T12:11:02;19.67;;;9.43;;
51949;SDS011;37974;53.218;6.640;2022-10-31T12:13:39;16.25;;;9.70;;
51949;SDS011;37974;53.218;6.640;2022-10-31T12:16:27;18.50;;;10.20;;
51949;SDS011;37974;53.218;6.640;2022-10-31T12:19:26;18.02;;;10.23;;
51949;SDS011;37974;53.218;6.640;2022-10-31T12:27:09;15.65;;;7.78;;
51949;SDS011;37974;53.218;6.640;2022-10-31T12:29:50;17.75;;;8.02;;
51949;SDS011;37974;53.218;6.640;2022-10-31T12:32:41;22.45;;;7.57;;
51949;SDS011;37974;53.218;6.640;2022-10-31T12:35:17;19.60;;;8.23;;
51949;SDS011;37974;53.218;6.640;2022-10-31T12:38:04;17.48;;;7.22;;
51949;SDS011;37974;53.218;6.640;2022-10-31T12:41:01;15.93;;;7.53;;
51949;SDS011;37974;53.218;6.640;2022-10-31T12:44:21;21.02;;;7.97;;
51949;SDS011;37974;53.218;6.640;2022-10-31T12:46:55;17.70;;;7.75;;
51949;SDS011;37974;53.218;6.640;2022-10-31T12:49:41;18.15;;;7.13;;
51949;SDS011;37974;53.218;6.640;2022-10-31T12:52:39;12.52;;;6.50;;
51949;SDS011;37974;53.218;6.640;2022-10-31T12:58:16;28.83;;;12.68;;
51949;SDS011;37974;53.218;6.640;2022-10-31T13:00:51;20.13;;;9.43;;
51949;SDS011;37974;53.218;6.640;2022-10-31T13:03:28;22.63;;;11.35;;
51949;SDS011;37974;53.218;6.640;2022-10-31T13:06:09;18.17;;;8.45;;
51949;SDS011;37974;53.218;6.640;2022-10-31T13:08:44;16.45;;;6.63;;
51949;SDS011;37974;53.218;6.640;2022-10-31T13:11:23;15.10;;;5.95;;
51949;SDS011;37974;53.218;6.640;2022-10-31T13:14:04;13.50;;;5.15;;
51949;SDS011;37974;53.218;6.640;2022-10-31T13:16:40;9.23;;;3.55;;
51949;SDS011;37974;53.218;6.640;2022-10-31T13:19:12;16.60;;;3.85;;
51949;SDS011;37974;53.218;6.640;2022-10-31T13:21:59;9.88;;;3.13;;
51949;SDS011;37974;53.218;6.640;2022-10-31T13:24:38;15.48;;;4.00;;
51949;SDS011;37974;53.218;6.640;2022-10-31T13:27:18;13.32;;;4.20;;
51949;SDS011;37974;53.218;6.640;2022-10-31T13:29:56;17.38;;;4.38;;
51949;SDS011;37974;53.218;6.640;2022-10-31T13:32:50;11.13;;;3.88;;
51949;SDS011;37974;53.218;6.640;2022-10-31T13:35:21;12.27;;;3.92;;
51949;SDS011;37974;53.218;6.640;2022-10-31T13:37:51;13.80;;;4.57;;
51949;SDS011;37974;53.218;6.640;2022-10-31T13:43:10;12.65;;;3.50;;
51949;SDS011;37974;53.218;6.640;2022-10-31T13:45:47;14.18;;;4.10;;
51949;SDS011;37974;53.218;6.640;2022-10-31T13:50:41;22.30;;;5.90;;
51949;SDS011;37974;53.218;6.640;2022-10-31T13:55:44;19.02;;;5.78;;
51949;SDS011;37974;53.218;6.640;2022-10-31T13:58:21;15.98;;;6.18;;
51949;SDS011;37974;53.218;6.640;2022-10-31T14:00:58;19.23;;;6.82;;
51949;SDS011;37974;53.218;6.640;2022-10-31T14:03:27;17.52;;;6.25;;
51949;SDS011;37974;53.218;6.640;2022-10-31T14:06:14;16.90;;;5.28;;
51949;SDS011;37974;53.218;6.640;2022-10-31T14:08:51;13.23;;;5.60;;
51949;SDS011;37974;53.218;6.640;2022-10-31T14:11:20;15.38;;;6.15;;
51949;SDS011;37974;53.218;6.640;2022-10-31T14:13:52;18.58;;;6.60;;
51949;SDS011;37974;53.218;6.640;2022-10-31T14:16:22;18.98;;;6.10;;
51949;SDS011;37974;53.218;6.640;2022-10-31T14:18:51;13.45;;;5.10;;
51949;SDS011;37974;53.218;6.640;2022-10-31T14:23:51;13.20;;;5.20;;
51949;SDS011;37974;53.218;6.640;2022-10-31T14:28:56;22.60;;;7.03;;
51949;SDS011;37974;53.218;6.640;2022-10-31T14:31:29;14.13;;;6.22;;
51949;SDS011;37974;53.218;6.640;2022-10-31T14:40:07;14.65;;;5.40;;
51949;SDS011;37974;53.218;6.640;2022-10-31T14:47:44;13.02;;;4.78;;
51949;SDS011;37974;53.218;6.640;2022-10-31T14:53:00;18.63;;;5.03;;
51949;SDS011;37974;53.218;6.640;2022-10-31T14:55:31;15.73;;;6.30;;
51949;SDS011;37974;53.218;6.640;2022-10-31T14:58:02;21.88;;;5.78;;
51949;SDS011;37974;53.218;6.640;2022-10-31T15:00:31;15.75;;;5.78;;
51949;SDS011;37974;53.218;6.640;2022-10-31T15:03:09;13.80;;;6.25;;
51949;SDS011;37974;53.218;6.640;2022-10-31T15:05:42;13.17;;;6.20;;
51949;SDS011;37974;53.218;6.640;2022-10-31T15:08:31;20.70;;;6.97;;
51949;SDS011;37974;53.218;6.640;2022-10-31T15:11:10;13.50;;;6.22;;
51949;SDS011;37974;53.218;6.640;2022-10-31T15:13:44;17.63;;;6.82;;
51949;SDS011;37974;53.218;6.640;2022-10-31T15:16:17;21.45;;;7.78;;
51949;SDS011;37974;53.218;6.640;2022-10-31T15:18:46;17.10;;;7.03;;
51949;SDS011;37974;53.218;6.640;2022-10-31T15:21:21;16.50;;;7.03;;
51949;SDS011;37974;53.218;6.640;2022-10-31T15:23:50;15.60;;;6.80;;
51949;SDS011;37974;53.218;6.640;2022-10-31T15:26:22;21.48;;;7.43;;
51949;SDS011;37974;53.218;6.640;2022-10-31T15:28:59;19.48;;;8.07;;
51949;SDS011;37974;53.218;6.640;2022-10-31T15:31:34;17.63;;;7.80;;
51949;SDS011;37974;53.218;6.640;2022-10-31T15:34:02;20.60;;;8.25;;
51949;SDS011;37974;53.218;6.640;2022-10-31T15:36:37;17.40;;;7.95;;
51949;SDS011;37974;53.218;6.640;2022-10-31T15:39:02;20.95;;;8.60;;
51949;SDS011;37974;53.218;6.640;2022-10-31T15:44:16;20.40;;;8.45;;
51949;SDS011;37974;53.218;6.640;2022-10-31T15:46:54;18.58;;;9.30;;
51949;SDS011;37974;53.218;6.640;2022-10-31T15:51:54;18.83;;;9.68;;
51949;SDS011;37974;53.218;6.640;2022-10-31T15:54:20;24.77;;;10.15;;
51949;SDS011;37974;53.218;6.640;2022-10-31T15:56:46;22.23;;;10.07;;
51949;SDS011;37974;53.218;6.640;2022-10-31T15:59:17;21.83;;;9.75;;
51949;SDS011;37974;53.218;6.640;2022-10-31T16:02:53;19.20;;;9.60;;
51949;SDS011;37974;53.218;6.640;2022-10-31T16:04:52;25.20;;;10.57;;
51949;SDS011;37974;53.218;6.640;2022-10-31T16:07:20;22.48;;;9.90;;
51949;SDS011;37974;53.218;6.640;2022-10-31T16:09:51;17.08;;;9.35;;
51949;SDS011;37974;53.218;6.640;2022-10-31T16:12:29;20.02;;;9.88;;
51949;SDS011;37974;53.218;6.640;2022-10-31T16:15:02;18.38;;;8.98;;
51949;SDS011;37974;53.218;6.640;2022-10-31T16:17:29;22.98;;;10.15;;
51949;SDS011;37974;53.218;6.640;2022-10-31T16:19:58;22.52;;;10.88;;
51949;SDS011;37974;53.218;6.640;2022-10-31T16:22:28;15.57;;;8.82;;
51949;SDS011;37974;53.218;6.640;2022-10-31T16:24:59;22.17;;;9.23;;
51949;SDS011;37974;53.218;6.640;2022-10-31T16:27:39;21.60;;;8.30;;
51949;SDS011;37974;53.218;6.640;2022-10-31T16:32:54;18.05;;;7.65;;
51949;SDS011;37974;53.218;6.640;2022-10-31T16:35:27;16.90;;;7.93;;
51949;SDS011;37974;53.218;6.640;2022-10-31T16:37:57;16.58;;;6.18;;
51949;SDS011;37974;53.218;6.640;2022-10-31T16:40:22;14.30;;;7.43;;
51949;SDS011;37974;53.218;6.640;2022-10-31T16:42:48;12.85;;;6.90;;
51949;SDS011;37974;53.218;6.640;2022-10-31T16:45:17;14.57;;;6.38;;
51949;SDS011;37974;53.218;6.640;2022-10-31T16:47:44;10.60;;;7.20;;
51949;SDS011;37974;53.218;6.640;2022-10-31T16:50:12;14.95;;;7.72;;
51949;SDS011;37974;53.218;6.640;2022-10-31T16:52:41;12.70;;;7.57;;
51949;SDS011;37974;53.218;6.640;2022-10-31T16:55:10;13.32;;;7.22;;
51949;SDS011;37974;53.218;6.640;2022-10-31T16:57:40;18.45;;;7.32;;
51949;SDS011;37974;53.218;6.640;2022-10-31T17:00:19;13.57;;;7.35;;
51949;SDS011;37974;53.218;6.640;2022-10-31T17:02:48;17.30;;;7.82;;
51949;SDS011;37974;53.218;6.640;2022-10-31T17:05:17;12.43;;;7.18;;
51949;SDS011;37974;53.218;6.640;2022-10-31T17:07:45;16.58;;;8.10;;
51949;SDS011;37974;53.218;6.640;2022-10-31T17:10:12;14.00;;;7.80;;
51949;SDS011;37974;53.218;6.640;2022-10-31T17:12:40;17.35;;;8.80;;
51949;SDS011;37974;53.218;6.640;2022-10-31T17:15:16;15.35;;;8.98;;
51949;SDS011;37974;53.218;6.640;2022-10-31T17:17:45;15.70;;;8.38;;
51949;SDS011;37974;53.218;6.640;2022-10-31T17:20:16;16.08;;;9.13;;
51949;SDS011;37974;53.218;6.640;2022-10-31T17:22:46;17.58;;;9.00;;
51949;SDS011;37974;53.218;6.640;2022-10-31T17:25:13;20.70;;;10.63;;
51949;SDS011;37974;53.218;6.640;2022-10-31T17:27:43;17.08;;;11.05;;
51949;SDS011;37974;53.218;6.640;2022-10-31T17:30:10;19.10;;;10.80;;
51949;SDS011;37974;53.218;6.640;2022-10-31T17:32:37;20.08;;;12.02;;
51949;SDS011;37974;53.218;6.640;2022-10-31T17:35:03;22.50;;;12.77;;
51949;SDS011;37974;53.218;6.640;2022-10-31T17:37:29;22.60;;;12.95;;
51949;SDS011;37974;53.218;6.640;2022-10-31T17:39:55;24.23;;;14.63;;
51949;SDS011;37974;53.218;6.640;2022-10-31T17:42:21;23.75;;;14.95;;